createdAt,value
2023-02-22T00:01:07.596Z,100363.75
2023-02-22T00:03:35.596Z,100368.06
2023-02-22T00:06:06.119Z,100367.00
2023-02-22T00:08:37.913Z,100362.53
2023-02-22T00:11:08.797Z,100355.38
2023-02-22T00:13:38.597Z,100354.38
2023-02-22T00:16:07.395Z,100347.28
2023-02-22T00:18:35.127Z,100342.78
2023-02-22T00:21:02.974Z,100336.47
2023-02-22T00:23:32.039Z,100341.56
2023-02-22T00:26:01.271Z,100349.19
2023-02-22T00:28:30.726Z,100335.13
2023-02-22T00:30:59.896Z,100345.53
2023-02-22T00:33:28.018Z,100343.03
2023-02-22T00:35:55.693Z,100333.56
2023-02-22T00:38:24.232Z,100339.84
2023-02-22T00:40:53.127Z,100335.50
2023-02-22T00:43:21.075Z,100330.44
2023-02-22T00:45:49.270Z,100340.06
2023-02-22T00:48:18.763Z,100325.25
2023-02-22T00:50:48.447Z,100330.69
2023-02-22T00:53:17.454Z,100325.84
2023-02-22T00:55:45.286Z,100329.31
2023-02-22T00:58:13.128Z,100334.75
2023-02-22T01:00:43.005Z,100324.28
2023-02-22T01:03:14.656Z,100321.81
2023-02-22T01:05:43.328Z,100325.41
2023-02-22T01:08:13.914Z,100333.44
2023-02-22T01:10:41.782Z,100328.25
2023-02-22T01:13:12.535Z,100316.72
2023-02-22T01:15:44.730Z,100312.44
2023-02-22T01:18:13.344Z,100321.91
2023-02-22T01:20:41.127Z,100314.66
2023-02-22T01:23:10.619Z,100300.53
2023-02-22T01:25:38.549Z,100310.00
2023-02-22T01:28:08.103Z,100313.31
2023-02-22T01:30:37.458Z,100312.38
2023-02-22T01:33:07.788Z,100309.09
2023-02-22T01:35:40.830Z,100308.47
2023-02-22T01:38:10.569Z,100316.44
2023-02-22T01:40:46.491Z,100310.34
2023-02-22T01:43:27.916Z,100301.59
2023-02-22T01:46:06.455Z,100308.81
2023-02-22T01:48:54.347Z,100308.16
2023-02-22T01:51:37.544Z,100303.03
2023-02-22T01:54:15.309Z,100300.31
2023-02-22T01:57:15.569Z,100295.75
2023-02-22T01:59:48.775Z,100294.09
2023-02-22T02:02:18.751Z,100287.19
2023-02-22T02:04:46.617Z,100281.09
2023-02-22T02:07:18.693Z,100293.50
2023-02-22T02:09:59.419Z,100285.59
2023-02-22T02:12:32.807Z,100280.41
2023-02-22T02:15:33.683Z,100282.16
2023-02-22T02:18:09.294Z,100279.44
2023-02-22T02:21:41.782Z,100282.94
2023-02-22T02:24:29.631Z,100268.94
2023-02-22T02:27:20.352Z,100276.97
2023-02-22T02:30:12.586Z,100271.72
2023-02-22T02:33:01.656Z,100261.16
2023-02-22T02:35:44.386Z,100272.47
2023-02-22T02:38:23.384Z,100267.91
2023-02-22T02:41:19.631Z,100258.94
2023-02-22T02:44:11.216Z,100270.56
2023-02-22T02:46:49.744Z,100269.97
2023-02-22T02:49:25.909Z,100262.16
2023-02-22T02:51:56.351Z,100255.16
2023-02-22T02:54:25.088Z,100260.53
2023-02-22T02:57:13.744Z,100252.84
2023-02-22T02:59:41.468Z,100256.34
2023-02-22T03:02:27.560Z,100246.59
2023-02-22T03:05:31.845Z,100257.28
2023-02-22T03:08:30.579Z,100256.47
2023-02-22T03:11:16.616Z,100249.38
2023-02-22T03:14:17.960Z,100256.34
2023-02-22T03:17:41.578Z,100246.72
2023-02-22T03:20:31.909Z,100248.34
2023-02-22T03:23:11.799Z,100248.34
2023-02-22T03:25:51.781Z,100237.59
2023-02-22T03:28:26.351Z,100241.06
2023-02-22T03:31:15.841Z,100248.09
2023-02-22T03:33:56.176Z,100254.19
2023-02-22T03:36:51.141Z,100247.09
2023-02-22T03:39:20.567Z,100249.94
2023-02-22T03:41:51.535Z,100238.59
2023-02-22T03:44:27.468Z,100245.72
2023-02-22T03:46:57.769Z,100239.81
2023-02-22T03:49:53.925Z,100239.88
2023-02-22T03:52:23.439Z,100233.91
2023-02-22T03:54:55.820Z,100237.34
2023-02-22T03:57:32.019Z,100240.88
2023-02-22T04:00:09.020Z,100242.75
2023-02-22T04:02:42.474Z,100241.06
2023-02-22T04:05:15.738Z,100235.81
2023-02-22T04:07:43.626Z,100235.81
2023-02-22T04:10:17.739Z,100236.63
2023-02-22T04:12:45.678Z,100243.53
2023-02-22T04:15:18.944Z,100244.25
2023-02-22T04:17:47.280Z,100232.78
2023-02-22T04:20:19.894Z,100237.06
2023-02-22T04:22:56.681Z,100241.31
2023-02-22T04:25:25.113Z,100230.78
2023-02-22T04:27:53.842Z,100232.47
2023-02-22T04:30:31.804Z,100222.81
2023-02-22T04:32:59.804Z,100239.34
2023-02-22T04:35:27.810Z,100241.00
2023-02-22T04:37:55.683Z,100240.13
2023-02-22T04:40:23.721Z,100236.78
2023-02-22T04:42:51.536Z,100237.72
2023-02-22T04:45:19.428Z,100237.00
2023-02-22T04:47:47.232Z,100231.88
2023-02-22T04:50:16.857Z,100230.25
2023-02-22T04:52:45.602Z,100221.59
2023-02-22T04:55:13.345Z,100222.44
2023-02-22T04:57:41.161Z,100223.38
2023-02-22T05:00:10.494Z,100227.72
2023-02-22T05:02:40.120Z,100221.59
2023-02-22T05:05:08.345Z,100214.69
2023-02-22T05:07:36.189Z,100219.97
2023-02-22T05:10:04.203Z,100229.50
2023-02-22T05:12:32.014Z,100224.22
2023-02-22T05:14:59.818Z,100232.97
2023-02-22T05:17:27.595Z,100217.25
2023-02-22T05:19:55.434Z,100227.75
2023-02-22T05:22:24.420Z,100224.47
2023-02-22T05:24:56.796Z,100229.91
2023-02-22T05:27:24.642Z,100227.31
2023-02-22T05:29:52.314Z,100228.38
2023-02-22T05:32:20.103Z,100226.75
2023-02-22T05:34:48.004Z,100235.66
2023-02-22T05:37:15.664Z,100224.38
2023-02-22T05:39:43.369Z,100224.47
2023-02-22T05:42:11.090Z,100230.63
2023-02-22T05:44:38.799Z,100229.84
2023-02-22T05:47:06.448Z,100220.28
2023-02-22T05:49:34.125Z,100235.13
2023-02-22T05:52:01.907Z,100223.78
2023-02-22T05:54:29.687Z,100222.94
2023-02-22T05:56:57.993Z,100227.25
2023-02-22T05:59:26.475Z,100218.38
2023-02-22T06:01:54.329Z,100223.59
2023-02-22T06:04:22.015Z,100222.59
2023-02-22T06:06:49.738Z,100219.94
2023-02-22T06:09:17.808Z,100224.19
2023-02-22T06:11:45.723Z,100207.47
2023-02-22T06:14:13.536Z,100222.25
2023-02-22T06:16:41.312Z,100236.19
2023-02-22T06:19:09.280Z,100230.03
2023-02-22T06:21:37.060Z,100230.91
2023-02-22T06:24:05.166Z,100231.00
2023-02-22T06:26:32.877Z,100243.44
2023-02-22T06:29:02.055Z,100246.16
2023-02-22T06:31:31.718Z,100237.41
2023-02-22T06:33:59.398Z,100244.53
2023-02-22T06:36:27.172Z,100245.41
2023-02-22T06:38:57.242Z,100245.28
2023-02-22T06:41:24.942Z,100246.25
2023-02-22T06:43:52.716Z,100256.75
2023-02-22T06:46:21.136Z,100247.13
2023-02-22T06:48:52.237Z,100246.25
2023-02-22T06:51:20.095Z,100255.00
2023-02-22T06:53:49.813Z,100248.72
2023-02-22T06:56:17.824Z,100255.59
2023-02-22T06:58:46.137Z,100261.75
2023-02-22T07:01:14.165Z,100258.13
2023-02-22T07:03:42.925Z,100262.47
2023-02-22T07:06:10.945Z,100260.56
2023-02-22T07:08:40.511Z,100262.25
2023-02-22T07:11:08.161Z,100263.09
2023-02-22T07:13:35.923Z,100268.28
2023-02-22T07:16:03.896Z,100268.22
2023-02-22T07:18:31.676Z,100263.78
2023-02-22T07:21:01.391Z,100269.88
2023-02-22T07:23:29.479Z,100263.72
2023-02-22T07:26:01.457Z,100260.16
2023-02-22T07:28:31.407Z,100276.13
2023-02-22T07:31:01.762Z,100272.72
2023-02-22T07:33:29.487Z,100286.75
2023-02-22T07:35:59.558Z,100277.94
2023-02-22T07:38:28.672Z,100281.41
2023-02-22T07:40:58.197Z,100284.00
2023-02-22T07:43:29.003Z,100272.47
2023-02-22T07:46:03.024Z,100264.59
2023-02-22T07:48:32.240Z,100270.56
2023-02-22T07:51:00.251Z,100267.84
2023-02-22T07:53:32.409Z,100274.53
2023-02-22T07:56:05.106Z,100268.25
2023-02-22T07:58:33.360Z,100260.28
2023-02-22T08:01:04.421Z,100264.41
2023-02-22T08:03:36.506Z,100265.09
2023-02-22T08:06:07.441Z,100263.94
2023-02-22T08:08:35.190Z,100256.72
2023-02-22T08:11:03.273Z,100259.97
2023-02-22T08:13:31.492Z,100264.13
2023-02-22T08:15:59.394Z,100255.16
2023-02-22T08:18:27.628Z,100262.78
2023-02-22T08:20:55.958Z,100262.56
2023-02-22T08:23:27.104Z,100269.25
2023-02-22T08:25:57.770Z,100254.34
2023-02-22T08:28:27.777Z,100255.91
2023-02-22T08:30:55.615Z,100273.22
2023-02-22T08:33:26.653Z,100264.97
2023-02-22T08:35:54.702Z,100271.94
2023-02-22T08:38:30.417Z,100261.94
2023-02-22T08:41:00.458Z,100259.16
2023-02-22T08:43:28.653Z,100260.88
2023-02-22T08:45:57.757Z,100254.50
2023-02-22T08:48:26.868Z,100256.94
2023-02-22T08:50:54.995Z,100257.69
2023-02-22T08:53:23.309Z,100267.19
2023-02-22T08:55:51.148Z,100272.31
2023-02-22T08:58:19.056Z,100260.78
2023-02-22T09:00:47.244Z,100261.50
2023-02-22T09:03:37.625Z,100257.03
2023-02-22T09:06:08.409Z,100254.97
2023-02-22T09:08:36.280Z,100261.84
2023-02-22T09:11:05.530Z,100248.44
2023-02-22T09:13:34.106Z,100257.66
2023-02-22T09:16:01.921Z,100252.06
2023-02-22T09:18:43.535Z,100254.44
2023-02-22T09:21:12.854Z,100262.06
2023-02-22T09:23:41.579Z,100252.84
2023-02-22T09:26:10.433Z,100253.50
2023-02-22T09:28:38.638Z,100244.41
2023-02-22T09:31:07.571Z,100238.91
2023-02-22T09:33:35.388Z,100227.34
2023-02-22T09:36:03.133Z,100239.91
2023-02-22T09:38:32.657Z,100238.78
2023-02-22T09:41:12.414Z,100233.88
2023-02-22T09:44:30.491Z,100234.56
2023-02-22T09:47:00.748Z,100236.16
2023-02-22T09:49:39.841Z,100233.97
2023-02-22T09:52:28.067Z,100236.97
2023-02-22T09:55:08.738Z,100231.38
2023-02-22T09:57:42.131Z,100232.22
2023-02-22T10:00:28.832Z,100218.44
2023-02-22T10:03:18.971Z,100219.84
2023-02-22T10:06:10.126Z,100222.31
2023-02-22T10:08:39.848Z,100224.63
2023-02-22T10:11:43.846Z,100217.97
2023-02-22T10:14:20.662Z,100222.03
2023-02-22T10:17:33.120Z,100219.88
2023-02-22T10:20:28.566Z,100218.72
2023-02-22T10:23:26.385Z,100211.59
2023-02-22T10:26:13.528Z,100218.22
2023-02-22T10:29:01.332Z,100210.84
2023-02-22T10:31:38.808Z,100222.09
2023-02-22T10:34:25.824Z,100201.59
2023-02-22T10:37:32.847Z,100223.19
2023-02-22T10:40:17.295Z,100205.28
2023-02-22T10:42:47.468Z,100215.63
2023-02-22T10:45:27.214Z,100211.56
2023-02-22T10:47:58.989Z,100201.03
2023-02-22T10:50:31.827Z,100207.75
2023-02-22T10:52:59.965Z,100205.50
2023-02-22T10:55:28.361Z,100214.16
2023-02-22T10:58:07.084Z,100199.63
2023-02-22T11:00:40.072Z,100192.22
2023-02-22T11:03:19.588Z,100191.91
2023-02-22T11:05:50.819Z,100193.72
2023-02-22T11:08:21.478Z,100193.34
2023-02-22T11:10:56.222Z,100191.41
2023-02-22T11:13:29.520Z,100185.06
2023-02-22T11:16:20.769Z,100182.06
2023-02-22T11:18:49.308Z,100169.88
2023-02-22T11:21:23.319Z,100168.25
2023-02-22T11:24:10.376Z,100160.91
2023-02-22T11:26:55.799Z,100166.09
2023-02-22T11:29:36.329Z,100168.47
2023-02-22T11:32:15.615Z,100149.13
2023-02-22T11:34:45.264Z,100160.16
2023-02-22T11:37:36.760Z,100150.94
2023-02-22T11:40:19.864Z,100156.81
2023-02-22T11:43:05.824Z,100140.00
2023-02-22T11:45:34.399Z,100133.47
2023-02-22T11:48:07.510Z,100143.50
2023-02-22T11:51:19.139Z,100136.94
2023-02-22T11:54:25.448Z,100136.94
2023-02-22T11:57:01.480Z,100131.53
2023-02-22T11:59:41.824Z,100137.28
2023-02-22T12:02:51.780Z,100130.63
2023-02-22T12:06:03.035Z,100125.97
2023-02-22T12:09:03.493Z,100121.34
2023-02-22T12:11:45.276Z,100114.84
2023-02-22T12:14:45.333Z,100113.59
2023-02-22T12:17:54.348Z,100115.16
2023-02-22T12:20:45.780Z,100119.41
2023-02-22T12:23:47.072Z,100119.91
2023-02-22T12:26:26.885Z,100112.59
2023-02-22T12:29:14.820Z,100106.78
2023-02-22T12:32:07.632Z,100103.16
2023-02-22T12:34:57.387Z,100096.66
2023-02-22T12:37:56.860Z,100100.03
2023-02-22T12:41:08.740Z,100103.06
2023-02-22T12:43:41.713Z,100082.06
2023-02-22T12:46:29.690Z,100104.16
2023-02-22T12:49:39.953Z,100097.84
2023-02-22T12:52:21.730Z,100095.75
2023-02-22T12:55:07.283Z,100098.16
2023-02-22T12:58:17.760Z,100093.41
2023-02-22T13:01:30.039Z,100079.09
2023-02-22T13:03:58.009Z,100087.97
2023-02-22T13:06:51.471Z,100090.97
2023-02-22T13:09:50.271Z,100083.69
2023-02-22T13:13:04.854Z,100086.28
2023-02-22T13:16:05.934Z,100072.22
2023-02-22T13:19:30.866Z,100083.06
2023-02-22T13:23:03.003Z,100079.28
2023-02-22T13:26:03.596Z,100072.41
2023-02-22T13:28:43.253Z,100078.75
2023-02-22T13:31:55.346Z,100077.34
2023-02-22T13:35:13.936Z,100075.03
2023-02-22T13:37:41.705Z,100072.16
2023-02-22T13:40:44.323Z,100068.81
2023-02-22T13:43:27.099Z,100069.59
2023-02-22T13:46:19.126Z,100059.03
2023-02-22T13:49:06.874Z,100057.03
2023-02-22T13:51:47.110Z,100061.22
2023-02-22T13:54:51.472Z,100061.16
2023-02-22T13:57:25.457Z,100056.81
2023-02-22T14:00:14.778Z,100061.72
2023-02-22T14:03:08.344Z,100061.72
2023-02-22T14:05:50.973Z,100059.16
2023-02-22T14:08:19.211Z,100065.25
2023-02-22T14:10:52.653Z,100046.38
2023-02-22T14:13:29.220Z,100060.94
2023-02-22T14:16:00.295Z,100058.16
2023-02-22T14:18:35.939Z,100065.03
2023-02-22T14:21:16.385Z,100044.94
2023-02-22T14:23:51.220Z,100050.97
2023-02-22T14:26:33.110Z,100059.59
2023-02-22T14:29:09.036Z,100063.88
2023-02-22T14:31:51.652Z,100065.81
2023-02-22T14:34:48.737Z,100061.41
2023-02-22T14:37:40.003Z,100049.16
2023-02-22T14:40:29.316Z,100045.59
2023-02-22T14:43:22.569Z,100057.94
2023-02-22T14:45:54.961Z,100043.22
2023-02-22T14:48:42.881Z,100051.16
2023-02-22T14:51:25.103Z,100049.72
2023-02-22T14:54:25.659Z,100052.59
2023-02-22T14:57:21.804Z,100045.91
2023-02-22T15:00:31.183Z,100051.28
2023-02-22T15:03:01.629Z,100041.91
2023-02-22T15:05:38.493Z,100044.56
2023-02-22T15:08:09.499Z,100043.50
2023-02-22T15:10:43.265Z,100042.53
2023-02-22T15:13:31.323Z,100044.84
2023-02-22T15:16:02.321Z,100052.88
2023-02-22T15:18:40.884Z,100036.22
2023-02-22T15:21:23.442Z,100044.66
2023-02-22T15:23:53.674Z,100027.41
2023-02-22T15:26:31.185Z,100043.03
2023-02-22T15:29:02.707Z,100039.88
2023-02-22T15:31:31.830Z,100049.84
2023-02-22T15:34:24.940Z,100040.25
2023-02-22T15:36:56.200Z,100045.63
2023-02-22T15:39:38.602Z,100033.06
2023-02-22T15:42:20.735Z,100035.00
2023-02-22T15:44:53.816Z,100034.31
2023-02-22T15:47:28.144Z,100034.13
2023-02-22T15:50:23.329Z,100041.22
2023-02-22T15:52:59.054Z,100036.91
2023-02-22T15:55:42.013Z,100040.44
2023-02-22T15:58:18.315Z,100037.97
2023-02-22T16:01:03.685Z,100038.16
2023-02-22T16:03:50.564Z,100034.22
2023-02-22T16:06:35.743Z,100036.03
2023-02-22T16:09:25.855Z,100047.63
2023-02-22T16:12:21.936Z,100047.25
2023-02-22T16:14:52.332Z,100051.06
2023-02-22T16:17:49.475Z,100041.50
2023-02-22T16:20:24.846Z,100044.06
2023-02-22T16:22:58.101Z,100053.25
2023-02-22T16:25:37.328Z,100056.25
2023-02-22T16:28:36.345Z,100047.59
2023-02-22T16:31:05.036Z,100054.38
2023-02-22T16:33:34.089Z,100055.16
2023-02-22T16:36:07.976Z,100057.81
2023-02-22T16:38:38.354Z,100045.16
2023-02-22T16:41:07.527Z,100047.03
2023-02-22T16:43:35.992Z,100060.28
2023-02-22T16:46:06.956Z,100058.88
2023-02-22T16:48:38.333Z,100052.34
2023-02-22T16:51:17.523Z,100059.09
2023-02-22T16:53:45.755Z,100053.59
2023-02-22T16:56:16.860Z,100051.19
2023-02-22T16:58:46.872Z,100059.31
2023-02-22T17:01:18.201Z,100055.78
2023-02-22T17:03:46.430Z,100055.19
2023-02-22T17:06:14.219Z,100057.06
2023-02-22T17:08:42.909Z,100061.66
2023-02-22T17:11:12.820Z,100065.47
2023-02-22T17:13:40.936Z,100073.88
2023-02-22T17:16:14.961Z,100068.66
2023-02-22T17:18:47.203Z,100076.22
2023-02-22T17:21:16.578Z,100074.66
2023-02-22T17:23:47.548Z,100075.88
2023-02-22T17:26:17.053Z,100089.25
2023-02-22T17:28:45.221Z,100094.00
2023-02-22T17:31:24.193Z,100087.09
2023-02-22T17:33:52.390Z,100084.84
2023-02-22T17:36:20.839Z,100092.94
2023-02-22T17:38:49.810Z,100101.78
2023-02-22T17:41:17.672Z,100101.84
2023-02-22T17:43:45.661Z,100104.72
2023-02-22T17:46:15.666Z,100097.84
2023-02-22T17:48:50.234Z,100086.59
2023-02-22T17:51:18.233Z,100106.81
2023-02-22T17:53:46.262Z,100094.63
2023-02-22T17:56:18.754Z,100105.34
2023-02-22T17:58:54.104Z,100107.84
2023-02-22T18:01:30.202Z,100111.56
2023-02-22T18:04:02.578Z,100104.66
2023-02-22T18:06:32.661Z,100103.88
2023-02-22T18:09:01.319Z,100109.41
2023-02-22T18:11:32.521Z,100109.41
2023-02-22T18:14:00.617Z,100117.44
2023-02-22T18:16:28.375Z,100107.84
2023-02-22T18:18:56.947Z,100108.50
2023-02-22T18:21:26.794Z,100108.69
2023-02-22T18:23:55.197Z,100102.56
2023-02-22T18:26:25.613Z,100110.41
2023-02-22T18:28:56.318Z,100109.91
2023-02-22T18:31:24.446Z,100111.72
2023-02-22T18:33:53.451Z,100099.34
2023-02-22T18:36:22.785Z,100089.84
2023-02-22T18:38:55.388Z,100088.91
2023-02-22T18:41:27.183Z,100091.81
2023-02-22T18:43:57.561Z,100099.75
2023-02-22T18:46:25.535Z,100107.72
2023-02-22T18:48:56.307Z,100104.09
2023-02-22T18:51:26.109Z,100109.34
2023-02-22T18:54:00.424Z,100109.34
2023-02-22T18:56:31.788Z,100101.31
2023-02-22T18:59:04.205Z,100104.00
2023-02-22T19:01:40.854Z,100105.09
2023-02-22T19:04:10.116Z,100108.47
2023-02-22T19:06:38.373Z,100110.06
2023-02-22T19:09:09.727Z,100092.28
2023-02-22T19:11:37.869Z,100108.34
2023-02-22T19:14:05.758Z,100104.78
2023-02-22T19:16:33.738Z,100103.22
2023-02-22T19:19:01.660Z,100099.50
2023-02-22T19:21:33.042Z,100107.63
2023-02-22T19:24:04.558Z,100103.06
2023-02-22T19:26:32.352Z,100102.28
2023-02-22T19:29:08.371Z,100107.38
2023-02-22T19:31:36.394Z,100108.25
2023-02-22T19:34:11.108Z,100105.56
2023-02-22T19:36:41.560Z,100102.78
2023-02-22T19:39:12.226Z,100094.97
2023-02-22T19:41:40.633Z,100095.06
2023-02-22T19:44:09.304Z,100093.47
2023-02-22T19:46:37.769Z,100114.53
2023-02-22T19:49:07.165Z,100106.75
2023-02-22T19:51:35.200Z,100110.38
2023-02-22T19:54:07.326Z,100100.81
2023-02-22T19:56:35.737Z,100100.19
2023-02-22T19:59:12.668Z,100099.56
2023-02-22T20:01:44.222Z,100098.59
2023-02-22T20:04:18.565Z,100102.16
2023-02-22T20:06:49.147Z,100101.28
2023-02-22T20:09:24.294Z,100099.47
2023-02-22T20:11:52.337Z,100100.66
2023-02-22T20:14:23.948Z,100108.53
2023-02-22T20:16:54.017Z,100108.94
2023-02-22T20:19:22.738Z,100109.63
2023-02-22T20:21:52.409Z,100109.72
2023-02-22T20:24:20.311Z,100111.59
2023-02-22T20:26:49.878Z,100118.75
2023-02-22T20:29:19.769Z,100119.63
2023-02-22T20:31:53.543Z,100121.53
2023-02-22T20:34:22.528Z,100116.94
2023-02-22T20:36:53.926Z,100124.03
2023-02-22T20:39:22.765Z,100122.31
2023-02-22T20:41:50.865Z,100123.00
2023-02-22T20:44:19.686Z,100127.31
2023-02-22T20:46:48.468Z,100115.84
2023-02-22T20:49:19.924Z,100125.34
2023-02-22T20:51:49.377Z,100120.88
2023-02-22T20:54:18.102Z,100124.41
2023-02-22T20:57:08.022Z,100130.63
2023-02-22T20:59:55.708Z,100129.69
2023-02-22T21:02:23.888Z,100119.16
2023-02-22T21:04:52.102Z,100128.50
2023-02-22T21:07:22.363Z,100129.13
2023-02-22T21:09:50.485Z,100138.00
2023-02-22T21:12:18.470Z,100129.81
2023-02-22T21:14:46.365Z,100125.34
2023-02-22T21:17:14.391Z,100135.09
2023-02-22T21:19:42.447Z,100129.72
2023-02-22T21:22:10.486Z,100129.72
2023-02-22T21:24:38.690Z,100125.50
2023-02-22T21:27:06.941Z,100123.69
2023-02-22T21:29:35.546Z,100123.75
2023-02-22T21:32:03.908Z,100129.03
2023-02-22T21:34:32.146Z,100123.69
2023-02-22T21:36:59.899Z,100121.34
2023-02-22T21:39:30.362Z,100126.44
2023-02-22T21:42:00.136Z,100122.09
2023-02-22T21:44:30.274Z,100127.41
2023-02-22T21:46:58.076Z,100128.94
2023-02-22T21:49:26.189Z,100124.47
2023-02-22T21:51:53.923Z,100128.88
2023-02-22T21:54:21.998Z,100124.38
2023-02-22T21:56:50.308Z,100129.53
2023-02-22T21:59:23.417Z,100127.66
2023-02-22T22:01:57.900Z,100119.81
2023-02-22T22:04:29.045Z,100124.28
2023-02-22T22:06:59.600Z,100125.94
2023-02-22T22:09:32.882Z,100126.00
2023-02-22T22:12:06.025Z,100128.63
2023-02-22T22:14:35.321Z,100122.47
2023-02-22T22:17:06.941Z,100126.09
2023-02-22T22:19:40.430Z,100125.22
2023-02-22T22:22:08.756Z,100123.31
2023-02-22T22:24:37.003Z,100124.72
2023-02-22T22:27:07.626Z,100119.44
2023-02-22T22:29:35.626Z,100125.50
2023-02-22T22:32:04.143Z,100121.00
2023-02-22T22:34:34.403Z,100112.97
2023-02-22T22:37:02.980Z,100123.53
2023-02-22T22:39:30.870Z,100111.97
2023-02-22T22:41:58.952Z,100117.22
2023-02-22T22:44:32.677Z,100116.34
2023-02-22T22:47:00.961Z,100123.44
2023-02-22T22:49:31.244Z,100122.47
2023-02-22T22:51:59.140Z,100109.53
2023-02-22T22:54:28.808Z,100105.03
2023-02-22T22:56:56.527Z,100106.91
2023-02-22T22:59:24.310Z,100120.91
2023-02-22T23:01:52.321Z,100124.53
2023-02-22T23:04:21.432Z,100121.84
2023-02-22T23:06:51.550Z,100121.84
2023-02-22T23:09:29.666Z,100119.97
2023-02-22T23:12:15.079Z,100121.72
2023-02-22T23:14:44.856Z,100119.63
2023-02-22T23:17:26.705Z,100121.94
2023-02-22T23:19:54.830Z,100117.00
2023-02-22T23:22:22.857Z,100119.38
2023-02-22T23:24:50.792Z,100123.81
2023-02-22T23:27:19.015Z,100122.19
2023-02-22T23:29:47.120Z,100119.38
2023-02-22T23:32:15.251Z,100117.63
2023-02-22T23:34:43.917Z,100120.22
2023-02-22T23:37:14.020Z,100114.16
2023-02-22T23:39:42.421Z,100122.09
2023-02-22T23:42:10.113Z,100108.66
2023-02-22T23:44:39.801Z,100124.53
2023-02-22T23:47:07.590Z,100117.63
2023-02-22T23:49:38.837Z,100125.34
2023-02-22T23:52:08.026Z,100117.56
2023-02-22T23:54:40.457Z,100121.44
2023-02-22T23:57:08.844Z,100127.41
2023-02-22T23:59:40.380Z,100124.63
